createdAt,value
2023-04-24T00:04:15.367Z,12.10
2023-04-24T00:09:16.798Z,12.22
2023-04-24T00:14:17.819Z,12.10
2023-04-24T00:19:22.352Z,12.18
2023-04-24T00:24:23.223Z,12.16
2023-04-24T00:29:23.855Z,12.13
2023-04-24T00:34:25.801Z,12.06
2023-04-24T00:39:26.431Z,12.02
2023-04-24T00:44:27.303Z,12.05
2023-04-24T00:49:30.430Z,11.95
2023-04-24T00:54:31.695Z,11.89
2023-04-24T00:59:32.960Z,11.95
2023-04-24T01:04:35.173Z,11.99
2023-04-24T01:09:37.394Z,12.01
2023-04-24T01:14:38.413Z,11.98
2023-04-24T01:19:41.242Z,11.96
2023-04-24T01:24:44.652Z,11.97
2023-04-24T01:29:46.767Z,11.94
2023-04-24T01:34:48.743Z,11.80
2023-04-24T01:39:50.749Z,11.97
2023-04-24T01:44:53.376Z,11.85
2023-04-24T01:49:54.247Z,12.02
2023-04-24T01:54:56.813Z,12.07
2023-04-24T01:59:57.645Z,12.08
2023-04-24T02:04:58.529Z,12.05
2023-04-24T02:10:00.823Z,12.09
2023-04-24T02:15:01.680Z,12.10
2023-04-24T02:20:02.388Z,12.09
2023-04-24T02:25:04.578Z,12.05
2023-04-24T02:30:06.230Z,12.10
2023-04-24T02:35:07.956Z,12.07
2023-04-24T02:40:11.464Z,12.08
2023-04-24T02:45:12.618Z,12.04
2023-04-24T02:50:13.792Z,11.89
2023-04-24T02:55:16.832Z,11.95
2023-04-24T03:00:17.845Z,11.98
2023-04-24T03:05:18.541Z,11.86
2023-04-24T03:10:20.561Z,11.79
2023-04-24T03:15:22.958Z,11.87
2023-04-24T03:20:23.604Z,11.86
2023-04-24T03:25:26.141Z,11.93
2023-04-24T03:30:27.183Z,11.91
2023-04-24T03:35:32.513Z,11.85
2023-04-24T03:40:37.737Z,11.84
2023-04-24T03:45:46.136Z,11.72
2023-04-24T03:50:47.995Z,11.68
2023-04-24T03:55:50.771Z,11.69
2023-04-24T04:00:52.201Z,11.67
2023-04-24T04:06:20.396Z,11.83
2023-04-24T04:11:22.788Z,12.05
2023-04-24T04:16:23.504Z,12.33
2023-04-24T04:21:28.971Z,12.89
2023-04-24T04:26:41.593Z,12.79
2023-04-24T04:31:44.631Z,12.77
2023-04-24T04:36:47.645Z,12.72
2023-04-24T04:42:09.865Z,12.66
2023-04-24T04:47:14.845Z,12.72
2023-04-24T04:52:17.996Z,12.80
2023-04-24T04:57:22.489Z,12.96
2023-04-24T05:02:23.821Z,13.17
2023-04-24T05:07:24.659Z,13.33
2023-04-24T05:12:30.102Z,13.46
2023-04-24T05:17:32.057Z,13.75
2023-04-24T05:22:33.929Z,13.93
2023-04-24T05:27:36.310Z,13.94
2023-04-24T05:32:42.400Z,14.12
2023-04-24T05:37:43.081Z,14.32
2023-04-24T05:42:46.119Z,14.39
2023-04-24T05:47:46.823Z,14.35
2023-04-24T05:52:47.602Z,14.46
2023-04-24T05:58:02.732Z,14.70
2023-04-24T06:03:05.215Z,14.84
2023-04-24T06:08:06.437Z,15.05
2023-04-24T06:13:12.268Z,15.14
2023-04-24T06:18:23.958Z,15.33
2023-04-24T06:23:24.619Z,15.46
2023-04-24T06:28:26.673Z,15.55
2023-04-24T06:33:27.374Z,15.22
2023-04-24T06:38:28.162Z,15.30
2023-04-24T06:43:30.108Z,14.91
2023-04-24T06:48:30.837Z,15.39
2023-04-24T06:53:31.471Z,15.76
2023-04-24T06:58:33.913Z,16.16
2023-04-24T07:03:34.726Z,16.07
2023-04-24T07:08:36.813Z,16.06
2023-04-24T07:13:42.810Z,15.96
2023-04-24T07:18:43.544Z,15.90
2023-04-24T07:23:44.142Z,16.43
2023-04-24T07:28:46.478Z,16.44
2023-04-24T07:33:47.088Z,16.28
2023-04-24T07:38:48.010Z,16.17
2023-04-24T07:43:50.005Z,16.70
2023-04-24T07:49:01.825Z,16.50
2023-04-24T07:54:07.497Z,16.58
2023-04-24T07:59:10.773Z,16.70
2023-04-24T08:04:11.588Z,16.42
2023-04-24T08:09:12.496Z,16.67
2023-04-24T08:14:15.902Z,16.56
2023-04-24T08:19:16.639Z,17.62
2023-04-24T08:24:17.282Z,17.12
2023-04-24T08:29:19.716Z,16.82
2023-04-24T08:34:20.337Z,16.65
2023-04-24T08:39:21.139Z,16.87
2023-04-24T08:44:23.312Z,16.52
2023-04-24T08:49:26.280Z,16.57
2023-04-24T08:54:27.647Z,16.09
2023-04-24T08:59:30.136Z,16.34
2023-04-24T09:04:32.311Z,16.33
2023-04-24T09:09:35.185Z,16.63
2023-04-24T09:14:39.474Z,16.71
2023-04-24T09:19:40.509Z,16.60
2023-04-24T09:24:41.230Z,16.62
2023-04-24T09:29:55.630Z,16.67
2023-04-24T09:35:09.090Z,16.62
2023-04-24T09:40:15.049Z,16.33
2023-04-24T09:45:17.112Z,16.50
2023-04-24T09:50:20.203Z,16.73
2023-04-24T09:55:22.864Z,17.35
2023-04-24T10:00:31.362Z,16.59
2023-04-24T10:05:33.734Z,16.63
2023-04-24T10:10:35.817Z,16.56
2023-04-24T10:15:38.436Z,16.92
2023-04-24T10:20:41.432Z,16.82
2023-04-24T10:25:42.978Z,17.05
2023-04-24T10:30:45.585Z,17.22
2023-04-24T10:35:50.016Z,17.17
2023-04-24T10:40:50.832Z,17.30
2023-04-24T10:46:08.435Z,17.14
2023-04-24T10:51:14.035Z,16.91
2023-04-24T10:56:14.810Z,16.91
2023-04-24T11:01:29.231Z,17.08
2023-04-24T11:06:33.727Z,17.06
2023-04-24T11:11:35.550Z,16.92
2023-04-24T11:16:41.376Z,16.49
2023-04-24T11:21:44.129Z,16.39
2023-04-24T11:26:46.654Z,16.51
2023-04-24T11:31:50.786Z,16.84
2023-04-24T11:36:51.814Z,16.92
2023-04-24T11:41:52.824Z,16.64
2023-04-24T11:46:57.956Z,17.47
2023-04-24T11:52:00.961Z,18.04
2023-04-24T11:57:06.860Z,17.45
2023-04-24T12:02:08.895Z,17.37
2023-04-24T12:07:10.390Z,17.63
2023-04-24T12:12:13.107Z,17.39
2023-04-24T12:17:15.702Z,16.58
2023-04-24T12:22:16.556Z,16.24
2023-04-24T12:27:21.650Z,16.25
2023-04-24T12:32:23.862Z,16.01
2023-04-24T12:37:26.101Z,16.22
2023-04-24T12:42:28.371Z,16.86
2023-04-24T12:47:30.849Z,16.76
2023-04-24T12:52:32.294Z,16.81
2023-04-24T12:57:33.276Z,16.69
2023-04-24T13:02:36.045Z,16.65
2023-04-24T13:07:36.840Z,16.59
2023-04-24T13:12:37.721Z,16.92
2023-04-24T13:17:39.708Z,17.10
2023-04-24T13:22:40.379Z,17.34
2023-04-24T13:27:41.362Z,17.49
2023-04-24T13:32:43.374Z,16.93
2023-04-24T13:37:44.093Z,17.10
2023-04-24T13:42:45.157Z,16.94
2023-04-24T13:47:47.224Z,16.59
2023-04-24T13:52:47.897Z,16.54
2023-04-24T13:57:48.566Z,16.37
2023-04-24T14:02:50.676Z,16.08
2023-04-24T14:07:51.924Z,16.56
2023-04-24T14:12:54.075Z,16.69
2023-04-24T14:17:56.171Z,16.38
2023-04-24T14:22:59.430Z,16.96
2023-04-24T14:28:00.138Z,17.10
2023-04-24T14:33:02.277Z,17.15
2023-04-24T14:38:03.046Z,17.18
2023-04-24T14:43:03.791Z,16.77
2023-04-24T14:48:06.316Z,17.62
2023-04-24T14:53:07.016Z,17.43
2023-04-24T14:58:07.669Z,16.92
2023-04-24T15:03:09.827Z,16.85
2023-04-24T15:08:10.889Z,16.82
2023-04-24T15:13:11.624Z,16.81
2023-04-24T15:18:13.735Z,17.18
2023-04-24T15:23:14.461Z,16.79
2023-04-24T15:28:16.999Z,16.52
2023-04-24T15:33:19.042Z,16.23
2023-04-24T15:38:19.699Z,15.97
2023-04-24T15:43:20.364Z,15.72
2023-04-24T15:48:22.344Z,15.58
2023-04-24T15:53:23.311Z,15.64
2023-04-24T15:58:24.050Z,15.67
2023-04-24T16:03:26.258Z,15.50
2023-04-24T16:08:26.976Z,15.25
2023-04-24T16:13:29.130Z,15.19
2023-04-24T16:18:31.297Z,15.35
2023-04-24T16:23:31.932Z,15.17
2023-04-24T16:28:32.858Z,15.19
2023-04-24T16:33:34.833Z,15.17
2023-04-24T16:38:35.914Z,14.99
2023-04-24T16:43:36.628Z,14.84
2023-04-24T16:48:38.573Z,14.56
2023-04-24T16:53:39.247Z,14.48
2023-04-24T16:58:39.840Z,14.43
2023-04-24T17:03:42.015Z,14.43
2023-04-24T17:08:42.886Z,14.62
2023-04-24T17:13:43.652Z,15.23
2023-04-24T17:18:45.658Z,15.52
2023-04-24T17:23:46.364Z,15.80
2023-04-24T17:28:47.666Z,15.08
2023-04-24T17:33:49.817Z,14.66
2023-04-24T17:38:51.009Z,14.11
2023-04-24T17:43:51.773Z,14.19
2023-04-24T17:48:53.923Z,14.24
2023-04-24T17:53:55.106Z,13.75
2023-04-24T17:58:56.082Z,13.52
2023-04-24T18:03:58.393Z,13.37
2023-04-24T18:08:59.157Z,13.29
2023-04-24T18:13:59.829Z,13.00
2023-04-24T18:19:01.864Z,12.83
2023-04-24T18:24:02.480Z,12.58
2023-04-24T18:29:03.138Z,12.41
2023-04-24T18:34:05.620Z,12.26
2023-04-24T18:39:06.357Z,12.12
2023-04-24T18:44:06.983Z,12.04
2023-04-24T18:49:08.961Z,11.93
2023-04-24T18:54:09.635Z,11.86
2023-04-24T18:59:10.290Z,11.69
2023-04-24T19:04:12.634Z,11.67
2023-04-24T19:09:13.312Z,11.57
2023-04-24T19:14:14.454Z,11.52
2023-04-24T19:19:16.469Z,11.53
2023-04-24T19:24:18.977Z,11.49
2023-04-24T19:29:20.111Z,11.52
2023-04-24T19:34:22.181Z,11.41
2023-04-24T19:39:22.961Z,11.37
2023-04-24T19:44:23.585Z,11.24
2023-04-24T19:49:26.187Z,11.09
2023-04-24T19:54:27.219Z,11.14
2023-04-24T19:59:27.852Z,11.08
2023-04-24T20:04:29.958Z,10.99
2023-04-24T20:09:32.920Z,11.00
2023-04-24T20:14:33.664Z,11.02
2023-04-24T20:19:36.127Z,10.98
2023-04-24T20:24:36.988Z,11.01
2023-04-24T20:29:37.589Z,10.98
2023-04-24T20:34:40.218Z,10.98
2023-04-24T20:39:40.824Z,10.88
2023-04-24T20:44:42.129Z,10.84
2023-04-24T20:49:44.032Z,10.73
2023-04-24T20:54:44.789Z,10.63
2023-04-24T20:59:45.476Z,10.65
2023-04-24T21:04:47.842Z,10.55
2023-04-24T21:09:48.565Z,10.51
2023-04-24T21:14:51.070Z,10.46
2023-04-24T21:19:53.730Z,10.44
2023-04-24T21:24:54.525Z,10.48
2023-04-24T21:29:55.648Z,10.44
2023-04-24T21:34:59.360Z,10.48
2023-04-24T21:40:00.130Z,10.42
2023-04-24T21:45:00.864Z,10.28
2023-04-24T21:50:02.870Z,10.24
2023-04-24T21:55:03.563Z,10.11
2023-04-24T22:00:06.845Z,10.16
2023-04-24T22:05:15.374Z,10.12
2023-04-24T22:10:17.232Z,10.15
2023-04-24T22:15:17.906Z,10.08
2023-04-24T22:20:20.166Z,10.05
2023-04-24T22:25:20.994Z,9.90
2023-04-24T22:30:21.693Z,9.90
2023-04-24T22:35:23.608Z,9.82
2023-04-24T22:40:25.681Z,9.76
2023-04-24T22:45:26.497Z,9.70
2023-04-24T22:50:29.057Z,9.64
2023-04-24T22:55:29.666Z,9.61
2023-04-24T23:00:30.526Z,9.57
2023-04-24T23:05:32.615Z,9.54
2023-04-24T23:10:33.276Z,9.53
2023-04-24T23:15:34.721Z,9.43
2023-04-24T23:20:38.507Z,9.28
2023-04-24T23:25:39.378Z,9.29
2023-04-24T23:30:39.960Z,9.29
2023-04-24T23:35:41.964Z,9.23
2023-04-24T23:40:42.683Z,9.32
2023-04-24T23:45:43.347Z,9.41
2023-04-24T23:50:45.942Z,9.42
2023-04-24T23:55:46.583Z,9.42
